createdAt,value
2023-04-18T00:02:04.726Z,6.80
2023-04-18T00:04:34.100Z,6.80
2023-04-18T00:07:02.550Z,6.80
2023-04-18T00:09:30.738Z,6.80
2023-04-18T00:12:01.672Z,6.70
2023-04-18T00:14:30.123Z,6.80
2023-04-18T00:16:58.455Z,6.90
2023-04-18T00:19:26.795Z,7.00
2023-04-18T00:21:55.972Z,6.90
2023-04-18T00:24:24.277Z,6.80
2023-04-18T00:26:52.792Z,6.80
2023-04-18T00:29:23.693Z,6.80
2023-04-18T00:31:51.813Z,7.00
2023-04-18T00:34:20.120Z,7.00
2023-04-18T00:36:48.188Z,6.80
2023-04-18T00:39:16.611Z,6.80
2023-04-18T00:41:44.691Z,6.90
2023-04-18T00:44:13.198Z,6.70
2023-04-18T00:46:43.138Z,6.70
2023-04-18T00:49:11.551Z,6.80
2023-04-18T00:51:40.892Z,6.80
2023-04-18T00:54:09.839Z,6.90
2023-04-18T00:56:38.576Z,6.70
2023-04-18T00:59:07.186Z,6.80
2023-04-18T01:01:35.331Z,6.70
2023-04-18T01:04:05.617Z,6.80
2023-04-18T01:06:34.728Z,6.60
2023-04-18T01:09:05.545Z,6.60
2023-04-18T01:11:33.665Z,6.60
2023-04-18T01:14:02.521Z,6.70
2023-04-18T01:16:32.990Z,6.60
2023-04-18T01:19:01.065Z,6.50
2023-04-18T01:21:31.636Z,6.60
2023-04-18T01:24:04.209Z,6.60
2023-04-18T01:26:34.002Z,6.60
2023-04-18T01:29:02.518Z,6.50
2023-04-18T01:31:30.697Z,6.50
2023-04-18T01:33:59.165Z,6.60
2023-04-18T01:36:27.825Z,6.60
2023-04-18T01:38:56.045Z,6.70
2023-04-18T01:41:24.262Z,6.60
2023-04-18T01:43:53.779Z,6.60
2023-04-18T01:46:22.318Z,6.60
2023-04-18T01:48:50.801Z,6.60
2023-04-18T01:51:19.179Z,6.50
2023-04-18T01:53:47.523Z,6.60
2023-04-18T01:56:15.616Z,6.70
2023-04-18T01:58:43.782Z,6.70
2023-04-18T02:01:13.421Z,6.60
2023-04-18T02:03:42.249Z,6.60
2023-04-18T02:06:10.614Z,6.80
2023-04-18T02:08:38.746Z,6.90
2023-04-18T02:11:07.024Z,6.70
2023-04-18T02:13:35.455Z,6.60
2023-04-18T02:16:03.588Z,6.60
2023-04-18T02:18:34.596Z,6.70
2023-04-18T02:21:02.660Z,6.70
2023-04-18T02:23:31.050Z,6.60
2023-04-18T02:25:59.171Z,6.60
2023-04-18T02:28:27.569Z,6.70
2023-04-18T02:30:55.927Z,6.70
2023-04-18T02:33:24.285Z,6.60
2023-04-18T02:35:54.157Z,6.60
2023-04-18T02:38:22.253Z,6.60
2023-04-18T02:40:50.398Z,6.70
2023-04-18T02:43:18.482Z,6.60
2023-04-18T02:45:46.605Z,6.60
2023-04-18T02:48:15.191Z,6.60
2023-04-18T02:50:43.714Z,6.60
2023-04-18T02:53:13.455Z,6.60
2023-04-18T02:55:41.553Z,6.50
2023-04-18T02:58:10.336Z,6.50
2023-04-18T03:00:38.413Z,6.60
2023-04-18T03:03:06.692Z,6.60
2023-04-18T03:05:34.970Z,6.50
2023-04-18T03:08:03.120Z,6.60
2023-04-18T03:10:32.581Z,6.60
2023-04-18T03:13:01.185Z,6.60
2023-04-18T03:15:31.018Z,6.60
2023-04-18T03:17:59.816Z,6.70
2023-04-18T03:20:27.929Z,6.70
2023-04-18T03:22:56.055Z,6.50
2023-04-18T03:25:24.197Z,6.50
2023-04-18T03:27:53.945Z,6.50
2023-04-18T03:30:22.207Z,6.50
2023-04-18T03:32:50.515Z,6.50
2023-04-18T03:35:18.750Z,6.40
2023-04-18T03:37:47.026Z,6.50
2023-04-18T03:40:15.664Z,6.50
2023-04-18T03:42:43.761Z,6.50
2023-04-18T03:45:13.428Z,6.50
2023-04-18T03:47:41.566Z,6.50
2023-04-18T03:50:10.419Z,6.50
2023-04-18T03:52:38.531Z,6.40
2023-04-18T03:55:07.497Z,6.50
2023-04-18T03:57:35.662Z,6.40
2023-04-18T04:00:07.992Z,6.50
2023-04-18T04:02:37.756Z,6.50
2023-04-18T04:05:06.659Z,6.50
2023-04-18T04:07:35.395Z,6.40
2023-04-18T04:10:03.555Z,6.50
2023-04-18T04:12:32.193Z,6.50
2023-04-18T04:15:00.966Z,6.50
2023-04-18T04:17:29.163Z,6.40
2023-04-18T04:19:58.950Z,6.30
2023-04-18T04:22:27.341Z,6.30
2023-04-18T04:24:57.810Z,6.30
2023-04-18T04:27:27.142Z,6.30
2023-04-18T04:29:56.888Z,6.30
2023-04-18T04:32:25.996Z,6.30
2023-04-18T04:34:54.072Z,6.30
2023-04-18T04:37:24.084Z,6.30
2023-04-18T04:39:52.323Z,6.20
2023-04-18T04:42:20.784Z,6.30
2023-04-18T04:44:48.936Z,6.30
2023-04-18T04:47:17.374Z,6.20
2023-04-18T04:49:45.665Z,6.10
2023-04-18T04:52:13.808Z,6.20
2023-04-18T04:54:45.796Z,6.20
2023-04-18T04:57:14.081Z,6.30
2023-04-18T04:59:42.323Z,6.30
2023-04-18T05:02:10.512Z,6.30
2023-04-18T05:04:39.150Z,6.30
2023-04-18T05:07:07.417Z,6.30
2023-04-18T05:09:35.547Z,6.20
2023-04-18T05:12:06.112Z,6.20
2023-04-18T05:14:34.218Z,6.30
2023-04-18T05:17:02.774Z,6.30
2023-04-18T05:19:31.157Z,6.30
2023-04-18T05:21:59.295Z,6.30
2023-04-18T05:24:27.403Z,6.30
2023-04-18T05:26:56.049Z,6.30
2023-04-18T05:29:25.738Z,6.40
2023-04-18T05:31:53.833Z,6.40
2023-04-18T05:34:22.288Z,6.50
2023-04-18T05:36:50.810Z,6.50
2023-04-18T05:39:18.875Z,6.50
2023-04-18T05:41:47.041Z,6.50
2023-04-18T05:44:16.168Z,6.50
2023-04-18T05:46:45.870Z,6.50
2023-04-18T05:49:14.682Z,6.40
2023-04-18T05:51:43.135Z,6.50
2023-04-18T05:54:11.419Z,6.70
2023-04-18T05:56:42.011Z,6.50
2023-04-18T05:59:10.540Z,6.60
2023-04-18T06:01:38.640Z,6.80
2023-04-18T06:04:08.741Z,6.90
2023-04-18T06:06:37.057Z,6.90
2023-04-18T06:09:06.410Z,7.00
2023-04-18T06:11:35.703Z,6.90
2023-04-18T06:14:03.978Z,6.80
2023-04-18T06:16:32.388Z,6.90
2023-04-18T06:19:02.683Z,6.60
2023-04-18T06:21:32.257Z,6.50
2023-04-18T06:24:01.761Z,6.70
2023-04-18T06:26:31.182Z,6.50
2023-04-18T06:28:59.310Z,6.50
2023-04-18T06:31:27.470Z,6.50
2023-04-18T06:33:55.647Z,6.40
2023-04-18T06:36:23.889Z,6.40
2023-04-18T06:38:53.381Z,6.70
2023-04-18T06:41:21.468Z,6.40
2023-04-18T06:44:02.600Z,6.60
2023-04-18T06:46:32.225Z,6.80
2023-04-18T06:49:00.727Z,6.70
2023-04-18T06:51:29.073Z,6.70
2023-04-18T06:53:58.560Z,6.60
2023-04-18T06:56:27.322Z,7.20
2023-04-18T06:58:55.420Z,7.30
2023-04-18T07:01:23.576Z,7.30
2023-04-18T07:03:51.724Z,7.20
2023-04-18T07:06:19.906Z,7.50
2023-04-18T07:08:47.981Z,7.20
2023-04-18T07:11:18.831Z,7.70
2023-04-18T07:13:47.451Z,7.60
2023-04-18T07:16:15.573Z,7.30
2023-04-18T07:18:43.679Z,7.00
2023-04-18T07:21:12.153Z,7.70
2023-04-18T07:23:40.285Z,7.40
2023-04-18T07:26:10.010Z,8.10
2023-04-18T07:28:39.569Z,8.00
2023-04-18T07:31:11.233Z,7.80
2023-04-18T07:33:39.668Z,7.50
2023-04-18T07:36:08.751Z,8.50
2023-04-18T07:38:36.848Z,9.10
2023-04-18T07:41:05.269Z,9.10
2023-04-18T07:43:33.419Z,9.70
2023-04-18T07:46:03.130Z,9.60
2023-04-18T07:48:31.609Z,9.20
2023-04-18T07:51:00.281Z,9.70
2023-04-18T07:53:28.385Z,9.40
2023-04-18T07:55:57.300Z,9.20
2023-04-18T07:58:25.466Z,9.10
2023-04-18T08:00:53.597Z,9.30
2023-04-18T08:03:23.297Z,9.70
2023-04-18T08:05:51.981Z,9.90
2023-04-18T08:08:20.387Z,8.90
2023-04-18T08:10:48.550Z,9.30
2023-04-18T08:13:18.269Z,9.80
2023-04-18T08:15:47.143Z,10.00
2023-04-18T08:18:15.278Z,10.00
2023-04-18T08:20:44.830Z,10.60
2023-04-18T08:23:13.373Z,10.60
2023-04-18T08:25:41.921Z,10.60
2023-04-18T08:28:10.087Z,10.10
2023-04-18T08:30:38.329Z,10.30
2023-04-18T08:33:06.860Z,10.40
2023-04-18T08:35:35.363Z,10.90
2023-04-18T08:38:05.124Z,10.10
2023-04-18T08:40:33.636Z,9.10
2023-04-18T08:43:04.972Z,10.30
2023-04-18T08:45:33.391Z,9.40
2023-04-18T08:48:04.035Z,9.50
2023-04-18T08:50:32.392Z,10.00
2023-04-18T08:53:02.534Z,9.50
2023-04-18T08:55:33.631Z,9.50
2023-04-18T08:58:01.911Z,10.10
2023-04-18T09:00:30.873Z,10.30
2023-04-18T09:02:59.408Z,9.90
2023-04-18T09:05:28.323Z,10.00
2023-04-18T09:07:57.614Z,10.20
2023-04-18T09:10:30.153Z,10.20
2023-04-18T09:13:02.981Z,10.60
2023-04-18T09:15:31.689Z,11.30
2023-04-18T09:18:02.749Z,10.90
2023-04-18T09:20:38.471Z,10.90
2023-04-18T09:23:10.793Z,11.20
2023-04-18T09:25:46.855Z,10.10
2023-04-18T09:28:27.052Z,9.50
2023-04-18T09:30:56.518Z,9.90
2023-04-18T09:33:29.305Z,10.10
2023-04-18T09:36:00.289Z,10.20
2023-04-18T09:38:40.927Z,10.00
2023-04-18T09:41:10.046Z,11.30
2023-04-18T09:43:39.864Z,11.60
2023-04-18T09:46:09.450Z,11.70
2023-04-18T09:48:37.761Z,11.80
2023-04-18T09:51:08.015Z,11.10
2023-04-18T09:53:40.604Z,11.00
2023-04-18T09:56:13.764Z,10.60
2023-04-18T09:58:45.035Z,10.40
2023-04-18T10:01:13.440Z,10.30
2023-04-18T10:03:48.595Z,10.70
2023-04-18T10:06:17.766Z,10.90
2023-04-18T10:08:46.436Z,9.90
2023-04-18T10:11:14.939Z,10.50
2023-04-18T10:13:48.657Z,9.80
2023-04-18T10:16:18.251Z,10.60
2023-04-18T10:18:46.782Z,10.80
2023-04-18T10:21:15.438Z,11.10
2023-04-18T10:23:43.636Z,11.90
2023-04-18T10:26:12.203Z,12.00
2023-04-18T10:29:01.321Z,12.10
2023-04-18T10:31:30.203Z,10.60
2023-04-18T10:34:05.224Z,10.90
2023-04-18T10:36:34.569Z,11.70
2023-04-18T10:39:20.449Z,11.90
2023-04-18T10:41:51.641Z,11.30
2023-04-18T10:44:23.685Z,11.10
2023-04-18T10:47:21.865Z,11.50
2023-04-18T10:50:11.736Z,11.40
2023-04-18T10:52:40.282Z,10.50
2023-04-18T10:55:14.801Z,10.80
2023-04-18T10:57:44.453Z,10.50
2023-04-18T11:00:15.900Z,10.60
2023-04-18T11:02:51.526Z,10.80
2023-04-18T11:05:24.962Z,12.00
2023-04-18T11:07:53.891Z,11.20
2023-04-18T11:10:23.877Z,12.70
2023-04-18T11:12:53.554Z,13.10
2023-04-18T11:15:24.495Z,12.30
2023-04-18T11:18:02.607Z,12.70
2023-04-18T11:20:31.566Z,13.70
2023-04-18T11:23:01.421Z,12.80
2023-04-18T11:25:31.973Z,11.40
2023-04-18T11:28:01.808Z,11.50
2023-04-18T11:30:38.696Z,11.80
2023-04-18T11:33:08.673Z,12.50
2023-04-18T11:35:38.948Z,12.10
2023-04-18T11:38:07.602Z,12.40
2023-04-18T11:40:36.611Z,12.40
2023-04-18T11:43:06.777Z,13.20
2023-04-18T11:45:36.347Z,12.50
2023-04-18T11:48:05.084Z,12.80
2023-04-18T11:50:37.546Z,13.40
2023-04-18T11:53:05.699Z,13.50
2023-04-18T11:55:34.247Z,13.40
2023-04-18T11:58:03.258Z,12.80
2023-04-18T12:00:33.882Z,13.40
2023-04-18T12:03:05.306Z,13.20
2023-04-18T12:05:34.963Z,13.60
2023-04-18T12:08:11.298Z,12.80
2023-04-18T12:10:46.883Z,13.30
2023-04-18T12:13:15.251Z,13.40
2023-04-18T12:15:45.694Z,12.70
2023-04-18T12:18:18.081Z,12.70
2023-04-18T12:20:50.305Z,13.60
2023-04-18T12:23:32.054Z,13.40
2023-04-18T12:26:01.432Z,13.60
2023-04-18T12:28:29.682Z,13.50
2023-04-18T12:30:57.935Z,13.00
2023-04-18T12:33:27.897Z,13.00
2023-04-18T12:35:56.169Z,13.30
2023-04-18T12:38:24.917Z,13.00
2023-04-18T12:40:53.630Z,12.50
2023-04-18T12:43:21.819Z,13.20
2023-04-18T12:45:51.155Z,12.30
2023-04-18T12:48:19.293Z,12.30
2023-04-18T12:50:48.938Z,12.80
2023-04-18T12:53:17.089Z,12.70
2023-04-18T12:55:45.237Z,13.00
2023-04-18T12:58:18.445Z,13.10
2023-04-18T13:00:46.656Z,13.60
2023-04-18T13:03:15.320Z,13.50
2023-04-18T13:05:43.562Z,13.10
2023-04-18T13:08:17.633Z,13.60
2023-04-18T13:10:46.366Z,14.20
2023-04-18T13:13:14.847Z,14.40
2023-04-18T13:15:42.936Z,14.60
2023-04-18T13:18:11.148Z,14.20
2023-04-18T13:20:39.272Z,13.70
2023-04-18T13:23:07.701Z,14.70
2023-04-18T13:25:37.178Z,14.80
2023-04-18T13:28:05.417Z,14.50
2023-04-18T13:30:35.912Z,15.10
2023-04-18T13:33:04.199Z,14.00
2023-04-18T13:35:32.426Z,14.30
2023-04-18T13:38:00.529Z,13.50
2023-04-18T13:40:28.617Z,13.60
2023-04-18T13:42:58.098Z,13.50
2023-04-18T13:45:26.172Z,12.90
2023-04-18T13:47:54.338Z,13.90
2023-04-18T13:50:23.475Z,13.60
2023-04-18T13:52:52.236Z,13.60
2023-04-18T13:55:20.361Z,14.00
2023-04-18T13:57:48.535Z,14.00
2023-04-18T14:00:19.381Z,14.00
2023-04-18T14:02:48.054Z,14.20
2023-04-18T14:05:16.256Z,14.90
2023-04-18T14:07:44.860Z,14.80
2023-04-18T14:10:13.026Z,14.50
2023-04-18T14:12:41.164Z,13.60
2023-04-18T14:15:10.642Z,13.60
2023-04-18T14:17:41.468Z,13.70
2023-04-18T14:20:10.925Z,12.90
2023-04-18T14:22:39.011Z,13.20
2023-04-18T14:25:08.799Z,13.70
2023-04-18T14:27:37.428Z,13.80
2023-04-18T14:30:08.535Z,14.30
2023-04-18T14:32:36.903Z,13.70
2023-04-18T14:35:07.163Z,13.30
2023-04-18T14:37:35.737Z,14.00
2023-04-18T14:40:04.152Z,13.90
2023-04-18T14:42:32.513Z,14.20
2023-04-18T14:45:00.598Z,13.80
2023-04-18T14:47:32.057Z,13.50
2023-04-18T14:50:00.190Z,13.30
2023-04-18T14:52:29.660Z,13.90
2023-04-18T14:54:57.951Z,14.30
2023-04-18T14:57:26.476Z,14.20
2023-04-18T14:59:54.985Z,14.50
2023-04-18T15:02:23.251Z,13.70
2023-04-18T15:04:53.250Z,14.00
2023-04-18T15:07:21.797Z,13.70
2023-04-18T15:09:52.201Z,14.00
2023-04-18T15:12:20.385Z,13.50
2023-04-18T15:14:48.636Z,13.90
2023-04-18T15:17:17.126Z,14.00
2023-04-18T15:19:45.226Z,13.60
2023-04-18T15:22:13.355Z,14.50
2023-04-18T15:24:41.948Z,13.80
2023-04-18T15:27:12.174Z,13.50
2023-04-18T15:29:40.996Z,13.10
2023-04-18T15:32:09.850Z,13.90
2023-04-18T15:34:38.024Z,13.70
2023-04-18T15:37:06.460Z,13.70
2023-04-18T15:39:34.873Z,14.60
2023-04-18T15:42:03.332Z,13.80
2023-04-18T15:44:32.851Z,13.40
2023-04-18T15:47:01.890Z,13.50
2023-04-18T15:49:30.278Z,13.50
2023-04-18T15:51:58.368Z,13.80
2023-04-18T15:54:26.505Z,13.80
2023-04-18T15:56:55.591Z,13.90
2023-04-18T15:59:23.976Z,14.20
2023-04-18T16:01:53.498Z,13.70
2023-04-18T16:04:22.141Z,13.40
2023-04-18T16:06:50.293Z,13.90
2023-04-18T16:09:18.893Z,14.20
2023-04-18T16:11:47.011Z,14.00
2023-04-18T16:14:15.336Z,13.60
2023-04-18T16:16:43.551Z,13.50
2023-04-18T16:19:13.124Z,14.00
2023-04-18T16:21:41.236Z,13.70
2023-04-18T16:24:09.403Z,13.90
2023-04-18T16:26:37.973Z,14.10
2023-04-18T16:29:06.250Z,13.60
2023-04-18T16:31:35.147Z,13.90
2023-04-18T16:34:03.947Z,13.80
2023-04-18T16:36:35.829Z,13.70
2023-04-18T16:39:04.756Z,13.30
2023-04-18T16:41:32.852Z,13.60
2023-04-18T16:44:01.003Z,13.50
2023-04-18T16:46:31.369Z,13.40
2023-04-18T16:49:01.552Z,13.50
2023-04-18T16:51:30.212Z,13.30
2023-04-18T16:53:59.705Z,13.80
2023-04-18T16:56:27.774Z,14.00
2023-04-18T16:58:55.961Z,13.70
2023-04-18T17:01:24.132Z,13.50
2023-04-18T17:03:52.623Z,13.30
2023-04-18T17:06:22.808Z,13.30
2023-04-18T17:08:53.484Z,13.30
2023-04-18T17:11:23.264Z,13.30
2023-04-18T17:13:51.345Z,13.20
2023-04-18T17:16:19.901Z,13.20
2023-04-18T17:18:48.245Z,13.20
2023-04-18T17:21:16.363Z,13.30
2023-04-18T17:23:44.453Z,13.30
2023-04-18T17:26:12.588Z,13.20
2023-04-18T17:28:42.352Z,13.20
2023-04-18T17:31:10.475Z,13.20
2023-04-18T17:33:38.566Z,13.00
2023-04-18T17:36:07.683Z,13.10
2023-04-18T17:38:35.796Z,13.10
2023-04-18T17:41:05.745Z,13.10
2023-04-18T17:43:33.846Z,13.00
2023-04-18T17:46:04.037Z,13.10
2023-04-18T17:48:32.496Z,13.20
2023-04-18T17:51:00.693Z,13.10
2023-04-18T17:53:30.217Z,13.10
2023-04-18T17:56:00.241Z,13.00
2023-04-18T17:58:30.089Z,12.70
2023-04-18T18:00:58.305Z,12.80
2023-04-18T18:03:28.018Z,12.90
2023-04-18T18:05:56.205Z,12.90
2023-04-18T18:08:24.327Z,12.90
2023-04-18T18:10:52.457Z,12.70
2023-04-18T18:13:20.568Z,12.50
2023-04-18T18:15:48.977Z,12.50
2023-04-18T18:18:17.492Z,12.50
2023-04-18T18:20:47.026Z,12.40
2023-04-18T18:23:15.191Z,12.50
2023-04-18T18:25:43.382Z,12.30
2023-04-18T18:28:11.626Z,12.30
2023-04-18T18:30:40.158Z,12.30
2023-04-18T18:33:08.288Z,12.20
2023-04-18T18:35:36.656Z,12.30
2023-04-18T18:38:06.492Z,12.20
2023-04-18T18:40:34.643Z,12.20
2023-04-18T18:43:03.145Z,12.20
2023-04-18T18:45:31.557Z,12.10
2023-04-18T18:47:59.765Z,12.20
2023-04-18T18:50:27.886Z,12.10
2023-04-18T18:52:56.228Z,12.00
2023-04-18T18:55:25.869Z,12.10
2023-04-18T18:57:53.977Z,12.00
2023-04-18T19:00:22.173Z,12.00
2023-04-18T19:02:50.657Z,11.90
2023-04-18T19:05:18.845Z,11.80
2023-04-18T19:07:47.129Z,11.80
2023-04-18T19:10:15.501Z,11.80
2023-04-18T19:12:45.043Z,11.80
2023-04-18T19:15:13.862Z,11.80
2023-04-18T19:17:41.957Z,11.80
2023-04-18T19:20:11.016Z,11.70
2023-04-18T19:22:39.114Z,11.70
2023-04-18T19:25:08.779Z,11.70
2023-04-18T19:27:36.928Z,11.70
2023-04-18T19:30:08.133Z,11.70
2023-04-18T19:32:36.365Z,11.60
2023-04-18T19:35:05.597Z,11.60
2023-04-18T19:37:34.055Z,11.50
2023-04-18T19:40:02.756Z,11.40
2023-04-18T19:42:31.210Z,11.40
2023-04-18T19:44:59.736Z,11.30
2023-04-18T19:47:32.488Z,11.30
2023-04-18T19:50:00.907Z,11.20
2023-04-18T19:52:29.043Z,11.20
2023-04-18T19:54:57.147Z,11.20
2023-04-18T19:57:26.714Z,11.10
2023-04-18T19:59:54.860Z,11.10
2023-04-18T20:02:23.133Z,11.00
2023-04-18T20:04:53.287Z,11.00
2023-04-18T20:07:21.744Z,10.90
2023-04-18T20:09:50.752Z,11.00
2023-04-18T20:12:19.217Z,11.00
2023-04-18T20:14:47.283Z,10.90
2023-04-18T20:17:15.833Z,10.90
2023-04-18T20:19:44.163Z,10.90
2023-04-18T20:22:14.422Z,10.90
2023-04-18T20:24:42.808Z,10.80
2023-04-18T20:27:10.895Z,10.80
2023-04-18T20:29:39.109Z,10.70
2023-04-18T20:32:07.844Z,10.80
2023-04-18T20:34:35.979Z,10.70
2023-04-18T20:37:07.448Z,10.70
2023-04-18T20:39:38.556Z,10.70
2023-04-18T20:42:07.092Z,10.60
2023-04-18T20:44:36.075Z,10.60
2023-04-18T20:47:04.666Z,10.50
2023-04-18T20:49:34.363Z,10.50
2023-04-18T20:52:02.425Z,10.40
2023-04-18T20:54:30.673Z,10.40
2023-04-18T20:57:00.198Z,10.30
2023-04-18T20:59:28.300Z,10.30
2023-04-18T21:01:56.501Z,10.30
2023-04-18T21:04:25.084Z,10.30
2023-04-18T21:06:53.414Z,10.20
2023-04-18T21:09:21.868Z,10.20
2023-04-18T21:11:49.973Z,10.20
2023-04-18T21:14:20.003Z,10.20
2023-04-18T21:16:48.410Z,10.10
2023-04-18T21:19:16.489Z,10.20
2023-04-18T21:21:44.612Z,10.10
2023-04-18T21:24:12.756Z,10.10
2023-04-18T21:26:41.311Z,10.10
2023-04-18T21:29:10.074Z,10.10
2023-04-18T21:31:39.577Z,10.10
2023-04-18T21:34:07.743Z,10.00
2023-04-18T21:36:36.037Z,10.00
2023-04-18T21:39:04.677Z,10.00
2023-04-18T21:41:32.747Z,10.10
2023-04-18T21:44:01.324Z,10.00
2023-04-18T21:46:29.475Z,10.00
2023-04-18T21:48:59.320Z,10.00
2023-04-18T21:51:28.322Z,9.90
2023-04-18T21:53:56.541Z,9.90
2023-04-18T21:56:24.624Z,9.90
2023-04-18T21:58:52.756Z,9.80
2023-04-18T22:01:20.872Z,9.80
2023-04-18T22:03:49.546Z,9.70
2023-04-18T22:06:20.790Z,9.70
2023-04-18T22:08:50.003Z,9.70
2023-04-18T22:11:18.839Z,9.60
2023-04-18T22:13:47.391Z,9.60
2023-04-18T22:16:15.582Z,9.50
2023-04-18T22:18:43.832Z,9.50
2023-04-18T22:21:11.967Z,9.40
2023-04-18T22:23:41.481Z,9.40
2023-04-18T22:26:09.646Z,9.30
2023-04-18T22:28:37.755Z,9.30
2023-04-18T22:31:06.280Z,9.20
2023-04-18T22:33:34.387Z,9.30
2023-04-18T22:36:02.495Z,9.20
2023-04-18T22:38:30.624Z,9.20
2023-04-18T22:41:00.874Z,9.20
2023-04-18T22:43:28.957Z,9.10
2023-04-18T22:45:57.387Z,9.10
2023-04-18T22:48:25.838Z,9.00
2023-04-18T22:50:54.402Z,9.00
2023-04-18T22:53:22.798Z,9.00
2023-04-18T22:55:50.913Z,8.90
2023-04-18T22:58:20.414Z,8.80
2023-04-18T23:00:48.536Z,8.70
2023-04-18T23:03:16.770Z,8.70
2023-04-18T23:05:45.037Z,8.60
2023-04-18T23:08:13.105Z,8.50
2023-04-18T23:10:41.250Z,8.40
2023-04-18T23:13:09.342Z,8.40
2023-04-18T23:15:38.925Z,8.30
2023-04-18T23:18:07.236Z,8.20
2023-04-18T23:20:36.385Z,8.20
2023-04-18T23:23:04.535Z,8.10
2023-04-18T23:25:34.284Z,8.10
2023-04-18T23:28:02.371Z,8.10
2023-04-18T23:30:30.653Z,8.10
2023-04-18T23:33:00.244Z,7.80
2023-04-18T23:35:28.635Z,7.70
2023-04-18T23:37:57.162Z,7.70
2023-04-18T23:40:25.767Z,7.70
2023-04-18T23:42:54.020Z,7.60
2023-04-18T23:45:24.407Z,7.50
2023-04-18T23:47:52.964Z,7.40
2023-04-18T23:50:22.474Z,7.40
2023-04-18T23:52:51.190Z,7.30
2023-04-18T23:55:19.345Z,7.20
2023-04-18T23:57:47.475Z,7.10
